EGPDEGQK

Guest
Details From EGPD - Aberdeen Dyce
To EGQK - RAF Kinloss
Flight Number -
Tags generated
Created
Modified
Stats Distance 52 nm / 97 km
Max Altitude 200 ft / 61 m
Waypoints 3
Social Downloads 3
Likes 0
Share VATSIM

Download

Looking for another format? Having issues loading an existing format? Contact us
Advertisement - Login to hide

Notes

Basic altitude profile: - Ascent Rate: 2500ft/min - Ascent Speed: 250kts - Cruise Altitude: 35000ft - Cruise Speed: 420kts - Descent Rate: 1500ft/min - Descent Speed: 250kts

Route

EGPD KSS EGQK

ID Type Via Altitude Latitude Longitude Leg Dist Tot Dist Heading (true) Name
O EGPD APT - 0 ft / 0 m 57.20362˚ -2.19902˚ - 0 nm - Aberdeen Dyce
KSS VOR - 200 ft / 61 m 57.65926˚ -3.53511˚ 51 nm 51 nm 303° / 302° -
O EGQK APT - 0 ft / 0 m 57.64941˚ -3.56060˚ 1 nm 52 nm 234° / 234° RAF Kinloss

Altitude Profile

Advertisement - Login to hide

EGPD

Details ICAO EGPD (ABZ)
Name Aberdeen Dyce
Region United Kingdom
Timezone Europe/London (UTC+0.0)
Stats Elevation 215 ft / 66 m (AMSL)
Location 57.203623° -2.199018°
Runways 4
Magnetic Variation 2.025° W

METAR

EGPD 112020Z AUTO 29011KT 9999 BKN032 03/00 Q0997

Decode

TAF

TAF EGPD 111703Z 1118/1218 30007KT 9999 SCT030 PROB40 TEMPO 1118/1122 4000 SHRASN BKN006

Decode

Departure Runways

ID Width Length Bearing (true) Bearing (mag) Surface Threshold Offset Overrun Length
05 151 ft / 46 m 1,555 ft / 474 m 46.38° 48.41° Concrete 0 ft / 0 m 0 ft / 0 m
14 118 ft / 36 m 1,901 ft / 579 m 139.16° 141.19° Asphalt 0 ft / 0 m 0 ft / 0 m
16 151 ft / 46 m 6,006 ft / 1,831 m 158.21° 160.24° Asphalt 0 ft / 0 m 0 ft / 0 m
18 75 ft / 23 m 896 ft / 273 m 179.48° 181.51° Asphalt 0 ft / 0 m 0 ft / 0 m
23 151 ft / 46 m 1,555 ft / 474 m 226.38° 228.41° Concrete 0 ft / 0 m 0 ft / 0 m
32 118 ft / 36 m 1,901 ft / 579 m 319.16° 321.19° Asphalt 0 ft / 0 m 0 ft / 0 m
34 151 ft / 46 m 6,006 ft / 1,831 m 338.22° 340.25° Asphalt 0 ft / 0 m 0 ft / 0 m
36 75 ft / 23 m 896 ft / 273 m 359.48° 1.51° Asphalt 0 ft / 0 m 0 ft / 0 m

EGQK

Details ICAO EGQK
Name RAF Kinloss
Region United Kingdom
Timezone Europe/London (UTC+0.0)
Stats Elevation 22 ft / 7 m (AMSL)
Location 57.649410° -3.560597°
Runways 1
Magnetic Variation 2.688° W

METAR

EGQK 111950Z AUTO 21005KT 9999 SCT032/// 02/00 Q0998

Decode

TAF

Not found

Destination Runways

ID Width Length Bearing (true) Bearing (mag) Surface Threshold Offset Overrun Length
08 151 ft / 46 m 7,548 ft / 2,301 m 70.47° 73.16° Asphalt 0 ft / 0 m 82 ft / 25 m
26 151 ft / 46 m 7,548 ft / 2,301 m 250.51° 253.20° Asphalt 0 ft / 0 m 95 ft / 29 m

Approach Navaids

Runway Type Ident Frequency Range Bearing (true) Bearing (mag) Slope Elevation
26 Localiser IKS 109.70 MHz 18 nm / 33 km 254.03° 256.72° - 22 ft / 7 m (AMSL)
26 Glidescope IKS 109.70 MHz 10 nm / 19 km 250.49° 253.18° 3.00° 22 ft / 7 m (AMSL)

Popular Alternatives